Time;durP1;ratioP1;P1;durP2;ratioP2;P2;SDS_P1;SDS_P2;PMS_P1;PMS_P2;Temp;Humidity;BMP_temperature;BMP_pressure;BME280_temperature;BME280_humidity;BME280_pressure;Samples;Min_cycle;Max_cycle;Signal;HPM_P1;HPM_P2
2022/04/10 00:00:27;;;;;;;0.40;0.40;;;;;;;1.73;100.00;101959.97;5083881;27;20151;-68
2022/04/10 00:02:52;;;;;;;0.32;0.32;;;;;;;1.67;100.00;101952.03;5104752;28;20104;-68
2022/04/10 00:05:20;;;;;;;6.72;0.63;;;;;;;1.84;100.00;101958.34;5060460;28;20334;-68
2022/04/10 00:07:45;;;;;;;1.00;0.30;;;;;;;1.90;100.00;101956.66;5107292;28;20021;-68
2022/04/10 00:10:11;;;;;;;0.82;0.35;;;;;;;1.94;100.00;101963.66;5045629;28;20029;-68
2022/04/10 00:12:39;;;;;;;0.63;0.40;;;;;;;1.81;100.00;101953.94;5044453;28;20059;-68
2022/04/10 00:15:05;;;;;;;0.47;0.47;;;;;;;1.89;100.00;101959.25;5044740;28;20029;-67
2022/04/10 00:17:33;;;;;;;0.73;0.40;;;;;;;2.19;100.00;101957.78;5045186;28;20039;-68
2022/04/10 00:19:58;;;;;;;0.52;0.50;;;;;;;2.13;100.00;101949.03;5045656;28;20098;-68
2022/04/10 00:22:27;;;;;;;0.57;0.30;;;;;;;2.08;100.00;101943.72;5045138;28;20032;-68
2022/04/10 00:24:52;;;;;;;0.20;0.20;;;;;;;1.99;100.00;101937.50;5041189;28;20030;-68
2022/04/10 00:27:21;;;;;;;1.10;1.02;;;;;;;1.92;100.00;101939.22;5025255;28;20084;-68
2022/04/10 00:29:46;;;;;;;1.75;1.17;;;;;;;1.87;100.00;101940.03;5028953;28;20036;-68
2022/04/10 00:32:12;;;;;;;0.50;0.50;;;;;;;1.82;100.00;101937.38;5045348;28;20116;-68
2022/04/10 00:34:37;;;;;;;0.82;0.52;;;;;;;1.98;100.00;101934.03;5045693;28;20072;-68
2022/04/10 00:37:03;;;;;;;1.00;0.80;;;;;;;1.91;100.00;101932.22;5048181;27;20029;-68
2022/04/10 00:39:28;;;;;;;1.00;0.50;;;;;;;1.84;100.00;101921.66;5048332;28;20082;-68
2022/04/10 00:41:54;;;;;;;0.20;0.20;;;;;;;1.78;100.00;101919.00;5048740;28;20112;-68
2022/04/10 00:44:20;;;;;;;0.30;0.30;;;;;;;1.71;100.00;101918.03;5106938;27;20065;-67
2022/04/10 00:46:45;;;;;;;0.70;0.70;;;;;;;1.72;100.00;101917.16;5132708;27;20062;-68
2022/04/10 00:49:11;;;;;;;1.02;0.80;;;;;;;1.70;100.00;101924.16;5133053;27;20057;-68
2022/04/10 00:51:40;;;;;;;0.30;0.30;;;;;;;1.74;100.00;101925.94;5124708;27;20045;-68
2022/04/10 00:54:14;;;;;;;1.25;1.02;;;;;;;1.75;100.00;101932.06;5094353;27;20027;-68
2022/04/10 00:56:40;;;;;;;0.93;0.68;;;;;;;1.68;100.00;101927.59;5058923;27;20021;-67
2022/04/10 00:59:06;;;;;;;4.22;0.40;;;;;;;1.62;100.00;101924.91;5074086;27;20359;-68
2022/04/10 01:01:33;;;;;;;1.65;0.65;;;;;;;1.56;100.00;101918.75;5132045;27;20472;-69
2022/04/10 01:03:58;;;;;;;0.65;0.43;;;;;;;1.48;100.00;101930.88;5048179;27;20078;-67
2022/04/10 01:06:28;;;;;;;0.50;0.50;;;;;;;1.47;100.00;101930.84;5027987;28;20029;-68
2022/04/10 01:08:57;;;;;;;0.43;0.27;;;;;;;1.48;100.00;101933.50;5027838;28;20552;-68
2022/04/10 01:11:26;;;;;;;0.30;0.30;;;;;;;1.46;100.00;101934.34;5027361;28;20264;-67
2022/04/10 01:13:53;;;;;;;0.52;0.52;;;;;;;1.37;100.00;101929.88;5028059;28;20057;-68
2022/04/10 01:16:21;;;;;;;0.35;0.35;;;;;;;1.32;100.00;101930.69;5034207;28;20481;-68
2022/04/10 01:18:47;;;;;;;0.32;0.22;;;;;;;1.35;100.00;101941.19;5047726;28;20025;-68
2022/04/10 01:21:17;;;;;;;2.17;0.60;;;;;;;1.54;100.00;101943.16;5048195;28;20039;-68
2022/04/10 01:23:44;;;;;;;0.40;0.30;;;;;;;1.48;100.00;101941.34;5047776;28;20447;-68
2022/04/10 01:26:09;;;;;;;0.45;0.45;;;;;;;1.42;100.00;101943.00;5047215;28;20033;-68
2022/04/10 01:28:35;;;;;;;0.70;0.52;;;;;;;1.40;100.00;101947.38;5047061;28;20037;-68
2022/04/10 01:31:00;;;;;;;0.60;0.50;;;;;;;1.36;100.00;101949.06;5047781;28;20033;-68
2022/04/10 01:33:25;;;;;;;0.60;0.52;;;;;;;1.34;100.00;101955.13;5046936;28;20070;-68
2022/04/10 01:35:51;;;;;;;1.20;1.10;;;;;;;1.41;100.00;101962.19;5046905;28;20067;-68
2022/04/10 01:38:18;;;;;;;3.25;0.63;;;;;;;1.36;100.00;101954.31;5047233;28;20045;-68
2022/04/10 01:40:43;;;;;;;0.28;0.20;;;;;;;1.33;100.00;101962.13;5047440;28;20033;-68
2022/04/10 01:43:08;;;;;;;0.22;0.22;;;;;;;1.31;100.00;101955.09;5047848;28;20467;-68
2022/04/10 01:45:34;;;;;;;0.73;0.50;;;;;;;1.37;100.00;101955.19;5047493;28;20033;-68
2022/04/10 01:47:59;;;;;;;1.83;0.77;;;;;;;1.46;100.00;101953.56;5046944;28;20161;-68
2022/04/10 01:50:25;;;;;;;8.88;0.60;;;;;;;1.34;100.00;101949.88;5020527;28;20120;-68
2022/04/10 01:52:50;;;;;;;0.28;0.28;;;;;;;1.30;100.00;101961.19;5009164;28;20053;-69
2022/04/10 01:55:15;;;;;;;0.40;0.40;;;;;;;1.27;100.00;101958.53;5007671;28;20041;-68
2022/04/10 01:57:43;;;;;;;0.28;0.20;;;;;;;1.20;100.00;101954.97;5007628;28;20034;-68
2022/04/10 02:00:10;;;;;;;0.28;0.28;;;;;;;1.19;100.00;101965.41;5019210;27;20451;-68
2022/04/10 02:02:35;;;;;;;0.75;0.75;;;;;;;1.20;100.00;101970.66;5130666;27;20041;-67
2022/04/10 02:05:01;;;;;;;5.65;0.52;;;;;;;1.16;100.00;101963.66;5037076;27;20104;-68
2022/04/10 02:07:26;;;;;;;0.50;0.50;;;;;;;1.14;100.00;101962.75;5115191;27;20041;-68
2022/04/10 02:09:51;;;;;;;0.63;0.57;;;;;;;1.12;100.00;101966.19;5131501;27;20096;-68
2022/04/10 02:12:17;;;;;;;1.92;0.40;;;;;;;1.09;100.00;101960.91;5130566;27;20043;-68
2022/04/10 02:14:42;;;;;;;1.60;0.50;;;;;;;1.06;100.00;101963.47;5130750;27;20096;-68
2022/04/10 02:17:10;;;;;;;0.60;0.60;;;;;;;1.04;100.00;101971.31;5130904;27;20027;-67
2022/04/10 02:19:35;;;;;;;0.40;0.40;;;;;;;0.99;100.00;101966.88;5129782;27;20481;-68
2022/04/10 02:22:01;;;;;;;0.35;0.35;;;;;;;1.09;100.00;101974.88;5130596;27;20091;-68
2022/04/10 02:24:26;;;;;;;0.30;0.20;;;;;;;1.22;100.00;101970.69;5130088;27;20035;-68
2022/04/10 02:26:52;;;;;;;0.25;0.25;;;;;;;1.23;100.00;101975.06;5130850;27;20056;-67
2022/04/10 02:29:17;;;;;;;1.15;0.65;;;;;;;1.19;100.00;101970.66;5129887;27;20026;-69
2022/04/10 02:31:42;;;;;;;3.90;0.50;;;;;;;1.11;100.00;101972.28;5130698;27;20480;-68
2022/04/10 02:34:08;;;;;;;0.55;0.55;;;;;;;1.09;100.00;101972.25;5130572;27;20217;-68
2022/04/10 02:36:33;;;;;;;0.55;0.40;;;;;;;1.05;100.00;101965.25;5129702;27;20031;-68
2022/04/10 02:38:58;;;;;;;2.00;0.77;;;;;;;0.95;100.00;101959.84;5130137;27;20047;-67
2022/04/10 02:41:24;;;;;;;0.35;0.32;;;;;;;1.14;100.00;101970.59;5129758;27;20027;-68
2022/04/10 02:43:49;;;;;;;0.60;0.45;;;;;;;1.10;100.00;101975.75;5130231;27;20023;-68
2022/04/10 02:46:15;;;;;;;0.20;0.20;;;;;;;1.06;100.00;101977.44;5130266;27;20048;-68
2022/04/10 02:48:40;;;;;;;0.50;0.25;;;;;;;1.13;100.00;101981.03;5130155;27;20102;-68
2022/04/10 02:51:06;;;;;;;0.30;0.30;;;;;;;1.12;100.00;101981.91;5130299;27;20495;-68
2022/04/10 02:53:31;;;;;;;0.20;0.20;;;;;;;1.15;100.00;101977.56;5130203;27;20055;-68
2022/04/10 02:55:56;;;;;;;6.43;0.50;;;;;;;1.17;100.00;101974.97;5130038;27;20038;-68
2022/04/10 02:58:22;;;;;;;0.90;0.73;;;;;;;1.20;100.00;101978.50;5129081;27;20023;-68
2022/04/10 03:00:48;;;;;;;1.23;0.45;;;;;;;1.23;100.00;101972.47;5130146;27;20054;-68
2022/04/10 03:03:13;;;;;;;0.30;0.30;;;;;;;1.24;100.00;101980.31;5129830;27;20062;-68
2022/04/10 03:05:38;;;;;;;2.15;0.43;;;;;;;1.28;100.00;101974.25;5129554;27;20023;-68
2022/04/10 03:08:04;;;;;;;1.10;0.70;;;;;;;1.29;100.00;101968.16;5130239;27;20050;-68
2022/04/10 03:10:29;;;;;;;0.80;0.45;;;;;;;1.27;100.00;101987.31;5129047;27;20034;-69
2022/04/10 03:12:55;;;;;;;0.80;0.57;;;;;;;1.24;100.00;101993.41;5129794;27;20023;-68
2022/04/10 03:15:20;;;;;;;0.57;0.50;;;;;;;1.21;100.00;101987.25;5129844;27;20019;-69
2022/04/10 03:17:45;;;;;;;1.02;0.50;;;;;;;1.20;100.00;101990.69;5129632;27;20035;-68
2022/04/10 03:20:11;;;;;;;0.65;0.40;;;;;;;1.16;100.00;101991.53;5130470;27;20034;-68
2022/04/10 03:22:37;;;;;;;0.30;0.30;;;;;;;1.09;100.00;101989.69;5129701;27;20050;-68
2022/04/10 03:25:02;;;;;;;0.30;0.30;;;;;;;1.09;100.00;101997.53;5129409;27;20034;-68
2022/04/10 03:27:27;;;;;;;2.50;0.68;;;;;;;1.10;100.00;101997.53;5128352;27;20363;-68
2022/04/10 03:29:53;;;;;;;3.08;0.50;;;;;;;1.13;100.00;102005.47;5130041;27;20412;-68
2022/04/10 03:32:18;;;;;;;0.35;0.30;;;;;;;0.98;100.00;101999.09;5129289;28;20050;-67
2022/04/10 03:34:43;;;;;;;0.32;0.30;;;;;;;0.88;100.00;102008.56;5129911;27;20035;-68
2022/04/10 03:37:08;;;;;;;3.92;0.30;;;;;;;0.80;100.00;102004.09;5129686;27;20027;-67
2022/04/10 03:39:34;;;;;;;0.60;0.30;;;;;;;0.73;100.00;101999.59;5129619;27;20066;-68
2022/04/10 03:41:59;;;;;;;0.22;0.22;;;;;;;0.64;100.00;102010.81;5080143;27;20025;-68
2022/04/10 03:44:25;;;;;;;0.47;0.47;;;;;;;0.64;100.00;102005.59;5006476;28;20474;-68
2022/04/10 03:46:50;;;;;;;0.60;0.47;;;;;;;0.61;100.00;102007.25;5021670;28;20025;-68
2022/04/10 03:49:18;;;;;;;0.40;0.40;;;;;;;0.54;100.00;102006.28;5026217;28;20416;-68
2022/04/10 03:51:43;;;;;;;0.77;0.75;;;;;;;0.59;100.00;102012.47;5025729;28;20116;-68
2022/04/10 03:54:08;;;;;;;1.65;0.70;;;;;;;0.52;100.00;102014.97;5012481;28;20515;-68
2022/04/10 03:56:34;;;;;;;0.63;0.63;;;;;;;0.45;100.00;102013.97;5015829;28;20046;-68
2022/04/10 03:58:59;;;;;;;0.30;0.30;;;;;;;0.42;100.00;102013.94;5025453;28;20126;-68
2022/04/10 04:01:27;;;;;;;1.00;0.60;;;;;;;0.46;100.00;102018.34;5011007;28;20475;-68
2022/04/10 04:03:52;;;;;;;0.88;0.77;;;;;;;0.43;100.00;102030.47;5005810;28;20030;-69
2022/04/10 04:06:18;;;;;;;0.40;0.40;;;;;;;0.46;100.00;102035.78;5005690;28;20029;-68
2022/04/10 04:08:46;;;;;;;0.40;0.40;;;;;;;0.42;100.00;102036.56;5006221;28;20062;-67
2022/04/10 04:11:11;;;;;;;1.15;0.50;;;;;;;0.49;100.00;102046.28;5009133;28;20029;-68
2022/04/10 04:13:40;;;;;;;0.55;0.55;;;;;;;0.42;100.00;102054.84;5008937;28;20049;-68
2022/04/10 04:16:06;;;;;;;0.52;0.47;;;;;;;0.37;100.00;102039.09;5044336;28;20025;-68
2022/04/10 04:18:32;;;;;;;0.50;0.40;;;;;;;0.34;100.00;102049.50;5048213;28;20021;-68
2022/04/10 04:20:58;;;;;;;0.68;0.40;;;;;;;0.33;100.00;102052.94;5048348;28;20316;-68
2022/04/10 04:23:23;;;;;;;0.20;0.20;;;;;;;0.29;100.00;102060.69;5048541;28;20141;-69
2022/04/10 04:26:10;;;;;;;0.32;0.32;;;;;;;0.25;100.00;102069.34;5048566;28;20029;-68
2022/04/10 04:28:38;;;;;;;0.25;0.25;;;;;;;0.25;100.00;102071.97;5047794;28;20033;-68
2022/04/10 04:31:04;;;;;;;1.38;0.57;;;;;;;0.35;100.00;102085.22;5048714;28;20144;-68
2022/04/10 04:33:32;;;;;;;0.43;0.40;;;;;;;0.28;100.00;102083.34;5048188;28;20029;-68
2022/04/10 04:35:57;;;;;;;1.02;0.60;;;;;;;0.25;100.00;102098.97;5046994;28;20040;-68
2022/04/10 04:38:23;;;;;;;0.32;0.32;;;;;;;0.24;100.00;102096.34;5048543;28;20053;-68
2022/04/10 04:40:48;;;;;;;0.40;0.40;;;;;;;0.30;100.00;102114.72;5048210;28;20065;-68
2022/04/10 04:43:17;;;;;;;0.45;0.45;;;;;;;0.24;100.00;102118.09;5047631;28;20100;-67
2022/04/10 04:45:44;;;;;;;0.35;0.30;;;;;;;0.24;100.00;102138.13;5048381;28;20025;-68
2022/04/10 04:48:10;;;;;;;0.68;0.68;;;;;;;0.20;100.00;102141.53;5048014;28;20021;-67
2022/04/10 04:50:35;;;;;;;0.50;0.50;;;;;;;0.17;100.00;102147.56;5047301;28;20430;-67
2022/04/10 04:53:01;;;;;;;1.25;0.65;;;;;;;0.20;100.00;102151.97;5048173;28;20036;-67
2022/04/10 04:55:26;;;;;;;0.40;0.40;;;;;;;0.22;100.00;102160.72;5047735;28;20032;-67
2022/04/10 04:57:51;;;;;;;0.98;0.63;;;;;;;0.18;100.00;102162.38;5047770;28;20041;-67
2022/04/10 05:00:17;;;;;;;1.10;0.93;;;;;;;0.15;100.00;102166.66;5047855;28;20501;-67
2022/04/10 05:02:45;;;;;;;0.82;0.55;;;;;;;0.21;100.00;102175.50;5047660;28;20540;-68
2022/04/10 05:05:11;;;;;;;1.15;0.80;;;;;;;0.20;100.00;102183.31;5047611;28;20040;-67
2022/04/10 05:07:36;;;;;;;2.55;1.25;;;;;;;0.18;100.00;102179.78;5047045;28;20386;-67
2022/04/10 05:10:02;;;;;;;2.13;1.23;;;;;;;0.20;100.00;102178.97;5047354;28;20041;-67
2022/04/10 05:12:32;;;;;;;4.95;1.58;;;;;;;0.21;100.00;102183.34;5048079;28;20116;-69
2022/04/10 05:14:58;;;;;;;;;;;;;;;0.23;100.00;102192.09;5017888;28;20029;-67
2022/04/10 05:17:26;;;;;;;0.45;0.45;;;;;;;0.31;100.00;102194.88;5007904;28;19914;-67
2022/04/10 05:19:52;;;;;;;0.68;0.50;;;;;;;0.32;100.00;102204.44;5008752;28;20098;-68
2022/04/10 05:22:17;;;;;;;0.85;0.85;;;;;;;0.34;100.00;102208.00;5007281;28;20416;-67
2022/04/10 05:24:42;;;;;;;0.57;0.57;;;;;;;0.35;100.00;102209.78;5011785;28;20487;-67
2022/04/10 05:27:10;;;;;;;0.30;0.30;;;;;;;0.43;100.00;102218.63;5011749;28;20151;-70
2022/04/10 05:29:35;;;;;;;0.60;0.52;;;;;;;0.51;100.00;102231.00;5017891;28;20528;-67
2022/04/10 05:32:01;;;;;;;0.98;0.88;;;;;;;0.53;100.00;102231.94;5015076;28;20026;-67
2022/04/10 05:34:27;;;;;;;0.43;0.43;;;;;;;0.56;100.00;102231.09;5028592;27;20048;-66
2022/04/10 05:36:58;;;;;;;0.38;0.38;;;;;;;0.67;100.00;102242.63;5033575;27;20471;-67
2022/04/10 05:39:26;;;;;;;0.60;0.52;;;;;;;0.68;100.00;102247.91;5033794;27;20050;-67
2022/04/10 05:41:52;;;;;;;0.60;0.60;;;;;;;0.78;100.00;102270.78;5043814;27;20151;-67
2022/04/10 05:44:17;;;;;;;0.82;0.77;;;;;;;0.88;100.00;102277.06;5022542;27;20809;-67
2022/04/10 05:46:46;;;;;;;0.40;0.40;;;;;;;1.00;100.00;102293.88;5054589;27;20592;-67
2022/04/10 05:49:11;;;;;;;0.63;0.50;;;;;;;1.11;100.00;102299.28;5030726;27;20061;-67
2022/04/10 05:51:37;;;;;;;0.65;0.45;;;;;;;1.24;100.00;102303.91;5030243;27;20512;-67
2022/04/10 05:54:02;;;;;;;0.63;0.45;;;;;;;1.28;100.00;102313.56;5038275;27;20074;-70
2022/04/10 05:56:28;;;;;;;0.30;0.30;;;;;;;1.35;100.00;102324.19;5017445;28;20036;-67
2022/04/10 05:58:53;;;;;;;4.85;0.60;;;;;;;1.59;100.00;102339.47;5019664;27;20184;-67
2022/04/10 06:01:19;;;;;;;0.75;0.57;;;;;;;2.00;100.00;102340.13;5010143;28;20118;-67
2022/04/10 06:03:44;;;;;;;1.55;0.47;;;;;;;2.17;100.00;102339.53;5006406;28;20030;-67
2022/04/10 06:06:13;;;;;;;1.65;0.70;;;;;;;2.53;100.00;102342.69;5009355;28;20090;-67
2022/04/10 06:08:38;;;;;;;0.93;0.40;;;;;;;2.64;100.00;102335.84;5007208;28;20056;-67
2022/04/10 06:11:07;;;;;;;0.65;0.60;;;;;;;3.11;100.00;102334.69;5015224;28;20037;-69
2022/04/10 06:13:32;;;;;;;2.67;1.38;;;;;;;3.12;100.00;102325.94;5013011;28;20048;-67
2022/04/10 06:16:01;;;;;;;3.50;1.23;;;;;;;3.09;100.00;102301.41;5037613;28;20336;-66
2022/04/10 06:18:29;;;;;;;1.35;0.75;;;;;;;3.15;100.00;102297.09;5016502;28;20040;-67
2022/04/10 06:20:58;;;;;;;1.15;1.08;;;;;;;3.35;100.00;102283.28;5006257;28;20455;-67
2022/04/10 06:23:23;;;;;;;0.55;0.45;;;;;;;3.38;100.00;102262.31;5014742;28;20025;-69
2022/04/10 06:25:49;;;;;;;0.20;0.20;;;;;;;3.43;100.00;102248.38;5010694;28;20165;-67
2022/04/10 06:28:15;;;;;;;1.95;0.57;;;;;;;3.55;100.00;102240.59;5011329;28;20037;-67
2022/04/10 06:30:40;;;;;;;0.88;0.52;;;;;;;3.68;100.00;102237.19;5016047;28;20124;-68
2022/04/10 06:33:06;;;;;;;0.70;0.65;;;;;;;3.77;100.00;102223.22;5008472;28;20026;-67
2022/04/10 06:35:34;;;;;;;2.40;0.38;;;;;;;3.87;100.00;102210.19;5013686;28;20123;-68
2022/04/10 06:37:59;;;;;;;0.70;0.45;;;;;;;4.08;100.00;102189.25;5010385;28;20468;-67
2022/04/10 06:40:27;;;;;;;1.27;0.73;;;;;;;4.25;100.00;102181.47;5008009;28;20055;-68
2022/04/10 06:42:53;;;;;;;1.48;0.50;;;;;;;4.46;100.00;102166.63;5009278;28;20029;-67
2022/04/10 06:45:18;;;;;;;0.38;0.38;;;;;;;4.54;100.00;102151.75;5007884;28;20021;-66
2022/04/10 06:47:47;;;;;;;1.25;0.47;;;;;;;4.64;100.00;102145.66;5011650;28;20109;-68
2022/04/10 06:50:15;;;;;;;1.80;0.75;;;;;;;4.74;100.00;102128.13;5011173;28;20030;-67
2022/04/10 06:52:42;;;;;;;1.30;0.93;;;;;;;4.99;100.00;102124.63;5007877;28;20118;-67
2022/04/10 06:55:07;;;;;;;2.58;0.68;;;;;;;4.94;100.00;102115.84;5008875;28;20058;-68
2022/04/10 06:57:33;;;;;;;1.50;0.70;;;;;;;5.04;100.00;102109.72;5007841;28;20404;-68
2022/04/10 06:59:58;;;;;;;0.60;0.40;;;;;;;5.25;100.00;102119.34;5005948;28;20047;-67
2022/04/10 07:02:24;;;;;;;0.88;0.68;;;;;;;5.59;100.00;102111.41;5008589;28;20061;-66
2022/04/10 07:04:49;;;;;;;1.02;0.65;;;;;;;5.45;100.00;102114.94;5010958;28;20110;-67
2022/04/10 07:07:14;;;;;;;0.85;0.50;;;;;;;5.49;100.00;102108.78;5005869;28;20178;-67
2022/04/10 07:09:40;;;;;;;0.65;0.38;;;;;;;5.30;100.00;102117.59;5012304;28;20022;-68
2022/04/10 07:12:05;;;;;;;7.97;1.40;;;;;;;5.23;100.00;102121.13;5020761;28;20033;-68
2022/04/10 07:14:31;;;;;;;6.55;0.47;;;;;;;5.17;100.00;102121.13;5025815;28;20028;-65
2022/04/10 07:16:56;;;;;;;2.50;1.02;;;;;;;5.09;100.00;102129.00;5025323;28;20113;-67
2022/04/10 07:19:21;;;;;;;1.33;0.45;;;;;;;5.28;100.00;102122.84;5025753;28;20100;-66
2022/04/10 07:24:30;;;;;;;0.68;0.40;;;;;;;5.18;100.00;102128.13;5025232;28;20072;-68
2022/04/10 07:26:56;;;;;;;0.30;0.22;;;;;;;5.19;100.00;102132.50;5025401;28;20109;-66
2022/04/10 07:29:21;;;;;;;0.50;0.30;;;;;;;5.31;100.00;102138.66;5025288;28;20328;-66
2022/04/10 07:31:47;;;;;;;0.30;0.30;;;;;;;5.43;100.00;102129.88;5025066;28;20026;-65
2022/04/10 07:34:12;;;;;;;2.50;0.75;;;;;;;5.37;100.00;102135.16;5026080;28;20029;-66
2022/04/10 07:36:38;;;;;;;2.03;1.33;;;;;;;5.52;100.00;102133.38;5025566;28;20025;-68
2022/04/10 07:39:03;;;;;;;1.42;0.73;;;;;;;5.64;100.00;102141.25;5006038;28;20387;-68
2022/04/10 07:41:28;;;;;;;0.43;0.40;;;;;;;5.64;100.00;102146.50;5005162;28;20049;-68
2022/04/10 07:44:00;;;;;;;0.55;0.38;;;;;;;5.64;100.00;102146.50;5009098;28;20379;-68
2022/04/10 07:49:12;;;;;;;0.60;0.60;;;;;;;5.67;100.00;102143.88;5020170;28;20032;-66
2022/04/10 07:51:39;;;;;;;0.70;0.50;;;;;;;5.80;100.00;102150.00;5019500;28;20467;-66
2022/04/10 07:54:05;;;;;;;1.88;0.75;;;;;;;5.97;100.00;102146.47;5013509;28;20030;-68
2022/04/10 07:56:32;;;;;;;1.08;0.32;;;;;;;6.07;100.00;102153.47;5028494;28;20492;-67
2022/04/10 07:58:58;;;;;;;0.55;0.55;;;;;;;6.16;100.00;102153.44;5027448;28;20041;-67
2022/04/10 08:01:26;;;;;;;1.58;0.85;;;;;;;6.08;100.00;102157.84;5028863;28;20040;-67
2022/04/10 08:03:52;;;;;;;0.45;0.30;;;;;;;6.15;100.00;102150.81;5028629;28;20078;-68
2022/04/10 08:06:20;;;;;;;5.30;0.57;;;;;;;6.22;100.00;102150.75;5028287;28;20121;-66
2022/04/10 08:08:46;;;;;;;0.95;0.45;;;;;;;6.15;100.00;102154.31;5029150;28;20427;-67
2022/04/10 08:11:12;;;;;;;3.13;0.47;;;;;;;6.37;100.00;102162.16;5029061;28;20025;-67
2022/04/10 08:13:37;;;;;;;3.03;0.40;;;;;;;6.35;100.00;102161.28;5028209;28;20037;-67
2022/04/10 08:16:03;;;;;;;4.70;0.50;;;;;;;6.56;100.00;102156.78;5119904;27;20060;-67
2022/04/10 08:18:29;;;;;;;0.30;0.20;;;;;;;6.98;100.00;102160.91;5132985;27;20031;-67
2022/04/10 08:20:57;;;;;;;0.68;0.60;;;;;;;7.14;100.00;102155.50;5131741;27;20456;-67
2022/04/10 08:23:23;;;;;;;7.32;0.45;;;;;;;7.52;100.00;102152.53;5133503;27;20031;-67
2022/04/10 08:25:48;;;;;;;2.58;0.63;;;;;;;7.47;100.00;102159.59;5132966;27;20027;-67
2022/04/10 08:28:14;;;;;;;1.45;0.50;;;;;;;7.86;100.00;102163.66;5088372;27;20378;-67
2022/04/10 08:30:40;;;;;;;0.28;0.20;;;;;;;7.68;100.00;102156.78;5016489;28;20026;-67
2022/04/10 08:33:07;;;;;;;1.13;0.63;;;;;;;8.27;100.00;102158.78;5012901;28;20045;-67
2022/04/10 08:35:32;;;;;;;1.70;0.57;;;;;;;8.27;100.00;102161.44;5012547;28;20030;-67
2022/04/10 08:37:59;;;;;;;1.10;0.63;;;;;;;8.29;100.00;102159.66;5025028;28;20513;-66
2022/04/10 08:40:24;;;;;;;0.68;0.30;;;;;;;8.27;100.00;102164.09;5028641;28;20030;-66
2022/04/10 08:42:52;;;;;;;0.47;0.30;;;;;;;8.46;100.00;102157.66;5027953;28;20497;-67
2022/04/10 08:45:24;;;;;;;2.38;0.50;;;;;;;8.66;100.00;102158.28;5027965;28;20075;-67
2022/04/10 08:47:52;;;;;;;2.15;0.75;;;;;;;9.02;100.00;102158.63;5025903;28;20472;-67
2022/04/10 08:50:18;;;;;;;2.10;0.40;;;;;;;9.31;100.00;102164.31;5027375;28;20025;-67
2022/04/10 08:52:45;;;;;;;0.85;0.35;;;;;;;9.35;100.00;102170.44;5028267;28;20037;-66
2022/04/10 08:55:10;;;;;;;1.95;0.30;;;;;;;9.13;100.00;102169.94;5026880;28;20037;-66
2022/04/10 08:57:35;;;;;;;0.30;0.20;;;;;;;9.18;100.00;102173.38;5027558;28;20029;-66
2022/04/10 09:00:01;;;;;;;0.68;0.32;;;;;;;9.30;100.00;102177.59;5027632;28;20399;-69
2022/04/10 09:02:26;;;;;;;0.30;0.20;;;;;;;9.52;100.00;102172.81;5027576;28;20025;-66
2022/04/10 09:04:53;;;;;;;0.47;0.20;;;;;;;10.61;100.00;102170.69;5028243;28;20025;-66
2022/04/10 09:07:18;;;;;;;1.20;0.30;;;;;;;11.36;100.00;102172.47;5028187;28;20103;-66
2022/04/10 09:09:54;;;;;;;1.95;0.20;;;;;;;11.46;100.00;102177.50;5027670;28;20486;-66
2022/04/10 09:12:19;;;;;;;0.32;0.30;;;;;;;12.10;100.00;102184.72;5024688;28;20025;-67
2022/04/10 09:14:44;;;;;;;1.67;0.40;;;;;;;11.86;100.00;102182.72;5027275;27;20057;-66
2022/04/10 09:17:22;;;;;;;1.67;0.70;;;;;;;12.14;100.00;102179.25;5027109;28;20105;-66
2022/04/10 09:19:53;;;;;;;1.15;0.38;;;;;;;12.74;100.00;102175.72;5010239;28;20033;-66
2022/04/10 09:22:28;;;;;;;0.45;0.20;;;;;;;13.50;100.00;102169.72;5013814;28;20037;-66
2022/04/10 09:25:13;;;;;;;0.13;0.10;;;;;;;14.29;100.00;102179.38;5016048;28;20042;-67
2022/04/10 09:27:41;;;;;;;0.20;0.10;;;;;;;14.45;100.00;102191.25;5009545;28;20034;-66
2022/04/10 09:30:09;;;;;;;0.98;0.38;;;;;;;13.74;100.00;102185.78;5009315;28;20079;-67
2022/04/10 09:32:48;;;;;;;1.02;0.20;;;;;;;13.48;100.00;102192.91;5007635;28;20453;-67
2022/04/10 09:35:17;;;;;;;0.52;0.20;;;;;;;14.86;100.00;102195.88;5010401;28;20112;-67
2022/04/10 09:37:48;;;;;;;0.85;0.15;;;;;;;14.56;100.00;102206.91;5014837;28;20151;-67
2022/04/10 09:40:29;;;;;;;2.47;0.52;;;;;;;13.04;100.00;102212.16;5014626;28;20119;-68
2022/04/10 09:43:12;;;;;;;0.55;0.30;;;;;;;12.73;100.00;102195.31;5012307;28;20056;-68
2022/04/10 09:45:48;;;;;;;1.17;0.30;;;;;;;13.99;100.00;102198.28;5010398;28;20124;-67
2022/04/10 09:48:31;;;;;;;0.35;0.30;;;;;;;14.94;100.00;102207.16;5013862;28;20037;-69
2022/04/10 09:51:02;;;;;;;2.33;0.50;;;;;;;15.34;100.00;102198.44;5016533;28;20086;-68
2022/04/10 09:53:32;;;;;;;0.30;0.28;;;;;;;16.54;100.00;102217.34;5012102;28;20033;-68
2022/04/10 09:56:02;;;;;;;3.30;0.60;;;;;;;15.45;100.00;102209.59;5009548;28;20036;-68
2022/04/10 09:58:29;;;;;;;0.45;0.15;;;;;;;15.34;100.00;102211.81;5013628;28;20030;-68
2022/04/10 10:00:56;;;;;;;1.40;0.40;;;;;;;15.60;100.00;102218.81;5011599;28;20485;-67
2022/04/10 10:03:28;;;;;;;0.40;0.40;;;;;;;16.31;100.00;102221.94;5010225;28;20029;-68
2022/04/10 10:05:55;;;;;;;0.55;0.10;;;;;;;15.38;100.00;102223.28;5015593;28;20052;-68
2022/04/10 10:08:24;;;;;;;0.25;0.13;;;;;;;14.56;100.00;102215.78;5009106;28;20041;-68
2022/04/10 10:10:50;;;;;;;0.52;0.30;;;;;;;14.64;100.00;102213.69;5012513;28;20036;-67
2022/04/10 10:13:23;;;;;;;0.50;0.22;;;;;;;13.97;100.00;102214.38;5011642;28;20034;-68
2022/04/10 10:15:48;;;;;;;0.68;0.30;;;;;;;13.82;100.00;102209.53;5011340;28;20127;-68
2022/04/10 10:18:16;;;;;;;0.73;0.28;;;;;;;14.19;100.00;102196.66;5014010;28;20022;-67
2022/04/10 10:20:42;;;;;;;0.90;0.40;;;;;;;15.98;100.00;102208.19;5015496;28;20033;-66
2022/04/10 10:23:10;;;;;;;0.40;0.20;;;;;;;17.09;100.00;102220.09;5016473;28;20025;-67
2022/04/10 10:25:39;;;;;;;2.65;0.32;;;;;;;16.32;100.00;102213.84;5017255;28;20058;-66
2022/04/10 10:28:40;;;;;;;0.17;0.10;;;;;;;15.89;100.00;102227.34;5012943;28;20053;-67
2022/04/10 10:31:30;;;;;;;0.30;0.10;;;;;;;16.01;100.00;102220.63;5016357;28;20029;-67
2022/04/10 10:34:04;;;;;;;0.30;0.17;;;;;;;15.44;100.00;102225.72;5009902;28;20411;-67
2022/04/10 10:36:29;;;;;;;2.13;0.30;;;;;;;15.22;100.00;102226.53;5010480;28;20466;-67
2022/04/10 10:38:56;;;;;;;0.28;0.20;;;;;;;15.30;100.00;102213.72;5019836;28;20052;-68
2022/04/10 10:41:21;;;;;;;0.40;0.20;;;;;;;16.58;100.00;102223.41;5012816;28;20032;-69
2022/04/10 10:43:47;;;;;;;0.30;0.20;;;;;;;17.23;100.00;102218.50;5005478;28;20112;-68
2022/04/10 10:46:19;;;;;;;1.30;0.60;;;;;;;18.17;100.00;102226.25;5007316;28;20380;-66
2022/04/10 10:48:44;;;;;;;1.35;0.30;;;;;;;19.61;100.00;102228.09;5018251;28;20030;-67
2022/04/10 10:51:12;;;;;;;0.40;0.20;;;;;;;19.63;100.00;102234.25;5019809;28;20022;-67
2022/04/10 10:53:45;;;;;;;0.60;0.20;;;;;;;20.46;100.00;102242.75;5013885;28;20498;-67
2022/04/10 10:56:14;;;;;;;0.35;0.10;;;;;;;19.82;100.00;102239.47;5025077;28;20104;-67
2022/04/10 10:58:40;;;;;;;;;;;;;;;19.83;100.00;102240.31;5017931;28;20124;-66
2022/04/10 11:01:17;;;;;;;3.55;0.13;;;;;;;18.54;100.00;102229.72;5018361;28;19913;-66
2022/04/10 11:04:09;;;;;;;0.20;0.10;;;;;;;19.93;100.00;102225.31;5011896;28;20506;-67
2022/04/10 11:06:45;;;;;;;1.33;0.30;;;;;;;18.36;100.00;102231.53;5012044;28;20151;-68
2022/04/10 11:09:31;;;;;;;1.23;0.40;;;;;;;17.15;100.00;102228.75;5006420;28;20038;-68
2022/04/10 11:11:59;;;;;;;1.98;0.10;;;;;;;18.38;100.00;102212.59;5012427;28;20096;-67
2022/04/10 11:14:34;;;;;;;1.65;0.28;;;;;;;18.20;100.00;102204.56;5019179;28;20100;-66
2022/04/10 11:17:16;;;;;;;0.60;0.30;;;;;;;20.01;100.00;102210.44;5011084;28;20037;-67
2022/04/10 11:19:45;;;;;;;1.58;0.35;;;;;;;20.65;100.00;102210.94;5015780;28;20056;-68
2022/04/10 11:22:14;;;;;;;1.02;0.20;;;;;;;21.54;100.00;102213.19;5010737;28;21265;-68
2022/04/10 11:24:40;;;;;;;0.20;0.10;;;;;;;21.25;100.00;102211.56;5013075;28;20033;-68
2022/04/10 11:27:10;;;;;;;0.30;0.10;;;;;;;20.76;100.00;102212.94;5011107;28;20583;-68
2022/04/10 11:29:35;;;;;;;0.30;0.10;;;;;;;19.31;100.00;102202.03;5012426;28;20022;-68